sensor_id;sensor_type;location;lat;lon;timestamp;P1;durP1;ratioP1;P2;durP2;ratioP2
67076;SDS011;53991;46.364;17.008;2022-08-25T00:02:29;10.77;;;6.45;;
67076;SDS011;53991;46.364;17.008;2022-08-25T00:05:34;8.57;;;6.55;;
67076;SDS011;53991;46.364;17.008;2022-08-25T00:08:38;10.85;;;6.60;;
67076;SDS011;53991;46.364;17.008;2022-08-25T00:11:41;12.20;;;8.23;;
67076;SDS011;53991;46.364;17.008;2022-08-25T00:14:44;10.07;;;6.53;;
67076;SDS011;53991;46.364;17.008;2022-08-25T00:20:49;8.10;;;6.70;;
67076;SDS011;53991;46.364;17.008;2022-08-25T00:23:52;9.85;;;6.45;;
67076;SDS011;53991;46.364;17.008;2022-08-25T00:26:55;16.45;;;8.18;;
67076;SDS011;53991;46.364;17.008;2022-08-25T00:29:58;10.57;;;7.45;;
67076;SDS011;53991;46.364;17.008;2022-08-25T00:36:03;14.98;;;8.95;;
67076;SDS011;53991;46.364;17.008;2022-08-25T00:42:09;14.38;;;8.93;;
67076;SDS011;53991;46.364;17.008;2022-08-25T00:45:16;17.52;;;9.35;;
67076;SDS011;53991;46.364;17.008;2022-08-25T00:48:19;22.25;;;11.30;;
67076;SDS011;53991;46.364;17.008;2022-08-25T00:54:31;15.23;;;10.52;;
67076;SDS011;53991;46.364;17.008;2022-08-25T00:57:39;15.40;;;8.80;;
67076;SDS011;53991;46.364;17.008;2022-08-25T01:00:46;12.57;;;8.48;;
67076;SDS011;53991;46.364;17.008;2022-08-25T01:03:50;17.27;;;8.27;;
67076;SDS011;53991;46.364;17.008;2022-08-25T01:09:55;15.25;;;7.75;;
67076;SDS011;53991;46.364;17.008;2022-08-25T01:16:02;11.73;;;7.28;;
67076;SDS011;53991;46.364;17.008;2022-08-25T01:19:05;13.15;;;8.25;;
67076;SDS011;53991;46.364;17.008;2022-08-25T01:22:15;17.58;;;8.05;;
67076;SDS011;53991;46.364;17.008;2022-08-25T01:28:23;12.73;;;7.70;;
67076;SDS011;53991;46.364;17.008;2022-08-25T01:34:31;11.30;;;7.53;;
67076;SDS011;53991;46.364;17.008;2022-08-25T01:40:36;15.95;;;7.80;;
67076;SDS011;53991;46.364;17.008;2022-08-25T01:43:39;16.77;;;9.48;;
67076;SDS011;53991;46.364;17.008;2022-08-25T01:49:44;21.23;;;9.02;;
67076;SDS011;53991;46.364;17.008;2022-08-25T01:55:52;14.98;;;8.48;;
67076;SDS011;53991;46.364;17.008;2022-08-25T01:58:54;18.35;;;7.80;;
67076;SDS011;53991;46.364;17.008;2022-08-25T02:01:56;13.90;;;6.95;;
67076;SDS011;53991;46.364;17.008;2022-08-25T02:05:00;15.15;;;8.00;;
67076;SDS011;53991;46.364;17.008;2022-08-25T02:08:03;11.40;;;8.77;;
67076;SDS011;53991;46.364;17.008;2022-08-25T02:11:09;10.68;;;7.78;;
67076;SDS011;53991;46.364;17.008;2022-08-25T02:14:13;16.25;;;8.75;;
67076;SDS011;53991;46.364;17.008;2022-08-25T02:17:16;14.27;;;8.65;;
67076;SDS011;53991;46.364;17.008;2022-08-25T02:20:18;11.82;;;8.30;;
67076;SDS011;53991;46.364;17.008;2022-08-25T02:26:23;16.90;;;8.73;;
67076;SDS011;53991;46.364;17.008;2022-08-25T02:29:26;13.30;;;8.30;;
67076;SDS011;53991;46.364;17.008;2022-08-25T02:35:30;15.67;;;8.70;;
67076;SDS011;53991;46.364;17.008;2022-08-25T02:38:33;11.98;;;10.27;;
67076;SDS011;53991;46.364;17.008;2022-08-25T02:41:36;15.35;;;9.20;;
67076;SDS011;53991;46.364;17.008;2022-08-25T02:44:39;14.35;;;8.65;;
67076;SDS011;53991;46.364;17.008;2022-08-25T02:50:50;13.13;;;8.48;;
67076;SDS011;53991;46.364;17.008;2022-08-25T02:53:53;21.58;;;10.25;;
67076;SDS011;53991;46.364;17.008;2022-08-25T02:59:57;16.98;;;10.40;;
67076;SDS011;53991;46.364;17.008;2022-08-25T03:06:02;16.13;;;8.77;;
67076;SDS011;53991;46.364;17.008;2022-08-25T03:12:07;18.05;;;7.50;;
67076;SDS011;53991;46.364;17.008;2022-08-25T03:18:13;9.63;;;7.95;;
67076;SDS011;53991;46.364;17.008;2022-08-25T03:21:17;11.02;;;6.95;;
67076;SDS011;53991;46.364;17.008;2022-08-25T03:28:42;15.82;;;8.27;;
67076;SDS011;53991;46.364;17.008;2022-08-25T03:34:47;19.80;;;9.07;;
67076;SDS011;53991;46.364;17.008;2022-08-25T03:40:55;14.57;;;7.20;;
67076;SDS011;53991;46.364;17.008;2022-08-25T03:43:58;13.48;;;9.80;;
67076;SDS011;53991;46.364;17.008;2022-08-25T03:47:01;21.58;;;8.50;;
67076;SDS011;53991;46.364;17.008;2022-08-25T03:53:37;12.82;;;8.85;;
67076;SDS011;53991;46.364;17.008;2022-08-25T03:59:42;10.70;;;8.40;;
67076;SDS011;53991;46.364;17.008;2022-08-25T04:02:44;11.57;;;8.20;;
67076;SDS011;53991;46.364;17.008;2022-08-25T04:05:47;15.02;;;8.38;;
67076;SDS011;53991;46.364;17.008;2022-08-25T04:08:50;17.65;;;9.68;;
67076;SDS011;53991;46.364;17.008;2022-08-25T04:14:54;19.02;;;9.60;;
67076;SDS011;53991;46.364;17.008;2022-08-25T04:24:21;22.20;;;10.40;;
67076;SDS011;53991;46.364;17.008;2022-08-25T04:30:26;17.70;;;9.43;;
67076;SDS011;53991;46.364;17.008;2022-08-25T04:36:30;20.73;;;9.82;;
67076;SDS011;53991;46.364;17.008;2022-08-25T04:42:34;19.95;;;10.10;;
67076;SDS011;53991;46.364;17.008;2022-08-25T04:48:40;19.95;;;9.90;;
67076;SDS011;53991;46.364;17.008;2022-08-25T04:54:46;12.88;;;8.95;;
67076;SDS011;53991;46.364;17.008;2022-08-25T04:57:48;16.25;;;9.38;;
67076;SDS011;53991;46.364;17.008;2022-08-25T05:00:50;16.65;;;10.55;;
67076;SDS011;53991;46.364;17.008;2022-08-25T05:03:57;27.73;;;12.45;;
67076;SDS011;53991;46.364;17.008;2022-08-25T05:07:00;23.50;;;12.70;;
67076;SDS011;53991;46.364;17.008;2022-08-25T05:10:02;20.38;;;12.65;;
67076;SDS011;53991;46.364;17.008;2022-08-25T05:13:05;16.92;;;12.70;;
67076;SDS011;53991;46.364;17.008;2022-08-25T05:19:12;20.52;;;12.20;;
67076;SDS011;53991;46.364;17.008;2022-08-25T05:22:14;16.35;;;12.27;;
67076;SDS011;53991;46.364;17.008;2022-08-25T05:28:19;17.55;;;13.18;;
67076;SDS011;53991;46.364;17.008;2022-08-25T05:34:24;15.57;;;12.18;;
67076;SDS011;53991;46.364;17.008;2022-08-25T05:40:29;20.67;;;13.53;;
67076;SDS011;53991;46.364;17.008;2022-08-25T05:43:32;17.05;;;14.25;;
67076;SDS011;53991;46.364;17.008;2022-08-25T05:46:35;21.00;;;14.25;;
67076;SDS011;53991;46.364;17.008;2022-08-25T05:49:37;17.92;;;14.50;;
67076;SDS011;53991;46.364;17.008;2022-08-25T05:55:43;25.20;;;15.57;;
67076;SDS011;53991;46.364;17.008;2022-08-25T05:58:45;36.15;;;18.27;;
67076;SDS011;53991;46.364;17.008;2022-08-25T06:01:48;28.77;;;19.70;;
67076;SDS011;53991;46.364;17.008;2022-08-25T06:04:50;27.30;;;18.55;;
67076;SDS011;53991;46.364;17.008;2022-08-25T06:07:52;25.00;;;19.25;;
67076;SDS011;53991;46.364;17.008;2022-08-25T06:13:57;25.60;;;18.73;;
67076;SDS011;53991;46.364;17.008;2022-08-25T06:17:00;23.80;;;18.88;;
67076;SDS011;53991;46.364;17.008;2022-08-25T06:23:07;28.30;;;18.80;;
67076;SDS011;53991;46.364;17.008;2022-08-25T06:26:09;25.73;;;17.95;;
67076;SDS011;53991;46.364;17.008;2022-08-25T06:29:21;25.87;;;16.93;;
67076;SDS011;53991;46.364;17.008;2022-08-25T06:32:23;19.45;;;15.52;;
67076;SDS011;53991;46.364;17.008;2022-08-25T06:35:26;19.48;;;15.07;;
67076;SDS011;53991;46.364;17.008;2022-08-25T06:38:28;22.05;;;14.45;;
67076;SDS011;53991;46.364;17.008;2022-08-25T06:41:30;22.13;;;14.63;;
67076;SDS011;53991;46.364;17.008;2022-08-25T06:44:37;20.80;;;15.00;;
67076;SDS011;53991;46.364;17.008;2022-08-25T06:50:42;19.40;;;14.52;;
67076;SDS011;53991;46.364;17.008;2022-08-25T06:53:45;21.92;;;14.70;;
67076;SDS011;53991;46.364;17.008;2022-08-25T06:56:49;19.90;;;13.07;;
67076;SDS011;53991;46.364;17.008;2022-08-25T06:59:51;17.52;;;14.23;;
67076;SDS011;53991;46.364;17.008;2022-08-25T07:02:54;19.50;;;14.45;;
67076;SDS011;53991;46.364;17.008;2022-08-25T07:05:56;17.35;;;14.93;;
67076;SDS011;53991;46.364;17.008;2022-08-25T07:08:58;15.15;;;13.05;;
67076;SDS011;53991;46.364;17.008;2022-08-25T07:12:01;16.13;;;13.27;;
67076;SDS011;53991;46.364;17.008;2022-08-25T07:15:03;21.33;;;15.30;;
67076;SDS011;53991;46.364;17.008;2022-08-25T07:18:21;19.60;;;14.65;;
67076;SDS011;53991;46.364;17.008;2022-08-25T07:21:24;21.23;;;15.10;;
67076;SDS011;53991;46.364;17.008;2022-08-25T07:24:34;18.80;;;15.38;;
67076;SDS011;53991;46.364;17.008;2022-08-25T07:27:37;20.35;;;15.75;;
67076;SDS011;53991;46.364;17.008;2022-08-25T07:30:42;20.00;;;15.73;;
67076;SDS011;53991;46.364;17.008;2022-08-25T07:33:52;18.42;;;15.38;;
67076;SDS011;53991;46.364;17.008;2022-08-25T07:36:55;22.63;;;15.02;;
67076;SDS011;53991;46.364;17.008;2022-08-25T07:40:01;18.13;;;13.45;;
67076;SDS011;53991;46.364;17.008;2022-08-25T07:43:06;15.77;;;14.07;;
67076;SDS011;53991;46.364;17.008;2022-08-25T07:46:09;16.90;;;14.57;;
67076;SDS011;53991;46.364;17.008;2022-08-25T07:49:12;19.58;;;15.40;;
67076;SDS011;53991;46.364;17.008;2022-08-25T07:52:17;16.17;;;14.40;;
67076;SDS011;53991;46.364;17.008;2022-08-25T07:55:20;16.88;;;14.93;;
67076;SDS011;53991;46.364;17.008;2022-08-25T07:58:22;22.98;;;16.08;;
67076;SDS011;53991;46.364;17.008;2022-08-25T08:01:24;20.90;;;15.15;;
67076;SDS011;53991;46.364;17.008;2022-08-25T08:04:27;16.00;;;14.05;;
67076;SDS011;53991;46.364;17.008;2022-08-25T08:07:29;20.55;;;14.68;;
67076;SDS011;53991;46.364;17.008;2022-08-25T08:10:44;18.15;;;13.48;;
67076;SDS011;53991;46.364;17.008;2022-08-25T08:14:06;17.30;;;13.80;;
67076;SDS011;53991;46.364;17.008;2022-08-25T08:17:08;16.23;;;12.60;;
67076;SDS011;53991;46.364;17.008;2022-08-25T08:20:11;16.05;;;12.98;;
67076;SDS011;53991;46.364;17.008;2022-08-25T08:23:15;17.08;;;13.02;;
67076;SDS011;53991;46.364;17.008;2022-08-25T08:26:17;17.27;;;13.63;;
67076;SDS011;53991;46.364;17.008;2022-08-25T08:29:21;14.98;;;13.32;;
67076;SDS011;53991;46.364;17.008;2022-08-25T08:32:23;17.52;;;12.85;;
67076;SDS011;53991;46.364;17.008;2022-08-25T08:35:45;15.13;;;12.30;;
67076;SDS011;53991;46.364;17.008;2022-08-25T08:38:48;16.33;;;12.23;;
67076;SDS011;53991;46.364;17.008;2022-08-25T08:51:25;14.07;;;12.68;;
67076;SDS011;53991;46.364;17.008;2022-08-25T08:54:34;15.68;;;12.57;;
67076;SDS011;53991;46.364;17.008;2022-08-25T08:57:42;14.32;;;12.68;;
67076;SDS011;53991;46.364;17.008;2022-08-25T09:00:54;20.17;;;12.43;;
67076;SDS011;53991;46.364;17.008;2022-08-25T09:04:19;18.10;;;12.25;;
67076;SDS011;53991;46.364;17.008;2022-08-25T09:07:36;14.57;;;13.05;;
67076;SDS011;53991;46.364;17.008;2022-08-25T09:17:10;16.77;;;12.77;;
67076;SDS011;53991;46.364;17.008;2022-08-25T09:21:08;14.23;;;12.85;;
67076;SDS011;53991;46.364;17.008;2022-08-25T09:30:16;13.82;;;11.55;;
67076;SDS011;53991;46.364;17.008;2022-08-25T09:33:21;11.52;;;10.10;;
67076;SDS011;53991;46.364;17.008;2022-08-25T09:36:25;10.85;;;9.75;;
67076;SDS011;53991;46.364;17.008;2022-08-25T09:39:29;9.88;;;8.55;;
67076;SDS011;53991;46.364;17.008;2022-08-25T09:42:45;10.43;;;9.10;;
67076;SDS011;53991;46.364;17.008;2022-08-25T09:49:12;9.77;;;8.77;;
67076;SDS011;53991;46.364;17.008;2022-08-25T09:52:16;10.77;;;9.77;;
67076;SDS011;53991;46.364;17.008;2022-08-25T09:55:28;10.20;;;8.85;;
67076;SDS011;53991;46.364;17.008;2022-08-25T09:58:33;9.02;;;8.18;;
67076;SDS011;53991;46.364;17.008;2022-08-25T10:01:35;9.57;;;8.40;;
67076;SDS011;53991;46.364;17.008;2022-08-25T10:04:55;8.65;;;7.85;;
67076;SDS011;53991;46.364;17.008;2022-08-25T10:07:58;9.93;;;8.93;;
67076;SDS011;53991;46.364;17.008;2022-08-25T10:11:31;10.65;;;8.32;;
67076;SDS011;53991;46.364;17.008;2022-08-25T10:14:37;10.20;;;8.20;;
67076;SDS011;53991;46.364;17.008;2022-08-25T10:17:45;11.95;;;7.68;;
67076;SDS011;53991;46.364;17.008;2022-08-25T10:21:00;9.13;;;7.93;;
67076;SDS011;53991;46.364;17.008;2022-08-25T10:24:09;7.68;;;6.88;;
67076;SDS011;53991;46.364;17.008;2022-08-25T10:30:57;8.40;;;7.60;;
67076;SDS011;53991;46.364;17.008;2022-08-25T10:37:50;8.35;;;7.63;;
67076;SDS011;53991;46.364;17.008;2022-08-25T10:40:49;9.10;;;8.35;;
67076;SDS011;53991;46.364;17.008;2022-08-25T10:44:13;8.15;;;7.35;;
67076;SDS011;53991;46.364;17.008;2022-08-25T10:50:43;8.82;;;8.02;;
67076;SDS011;53991;46.364;17.008;2022-08-25T10:54:18;8.00;;;7.30;;
67076;SDS011;53991;46.364;17.008;2022-08-25T10:58:03;9.45;;;8.63;;
67076;SDS011;53991;46.364;17.008;2022-08-25T11:01:09;12.77;;;8.93;;
67076;SDS011;53991;46.364;17.008;2022-08-25T11:04:18;8.67;;;7.90;;
67076;SDS011;53991;46.364;17.008;2022-08-25T11:07:31;10.45;;;9.63;;
67076;SDS011;53991;46.364;17.008;2022-08-25T11:10:39;10.50;;;9.50;;
67076;SDS011;53991;46.364;17.008;2022-08-25T11:14:08;10.18;;;9.15;;
67076;SDS011;53991;46.364;17.008;2022-08-25T11:17:16;11.43;;;10.30;;
67076;SDS011;53991;46.364;17.008;2022-08-25T11:20:27;11.38;;;9.52;;
67076;SDS011;53991;46.364;17.008;2022-08-25T11:26:46;18.67;;;11.88;;
67076;SDS011;53991;46.364;17.008;2022-08-25T11:33:10;10.65;;;9.65;;
67076;SDS011;53991;46.364;17.008;2022-08-25T11:42:51;11.27;;;10.20;;
67076;SDS011;53991;46.364;17.008;2022-08-25T11:55:45;10.43;;;9.55;;
67076;SDS011;53991;46.364;17.008;2022-08-25T11:58:52;10.90;;;10.00;;
67076;SDS011;53991;46.364;17.008;2022-08-25T12:08:03;10.55;;;9.65;;
67076;SDS011;53991;46.364;17.008;2022-08-25T12:11:08;11.80;;;9.15;;
67076;SDS011;53991;46.364;17.008;2022-08-25T12:24:08;10.57;;;9.63;;
67076;SDS011;53991;46.364;17.008;2022-08-25T12:30:49;10.32;;;9.13;;
67076;SDS011;53991;46.364;17.008;2022-08-25T12:37:42;10.93;;;9.93;;
67076;SDS011;53991;46.364;17.008;2022-08-25T12:40:28;11.32;;;10.32;;
67076;SDS011;53991;46.364;17.008;2022-08-25T12:43:40;11.00;;;10.00;;
67076;SDS011;53991;46.364;17.008;2022-08-25T12:46:44;11.52;;;10.23;;
67076;SDS011;53991;46.364;17.008;2022-08-25T12:49:48;10.63;;;9.63;;
67076;SDS011;53991;46.364;17.008;2022-08-25T12:52:51;8.90;;;8.18;;
67076;SDS011;53991;46.364;17.008;2022-08-25T12:55:58;11.60;;;10.65;;
67076;SDS011;53991;46.364;17.008;2022-08-25T12:59:10;10.27;;;9.35;;
67076;SDS011;53991;46.364;17.008;2022-08-25T13:06:20;9.90;;;9.15;;
67076;SDS011;53991;46.364;17.008;2022-08-25T13:12:50;9.32;;;8.43;;
67076;SDS011;53991;46.364;17.008;2022-08-25T13:15:58;10.60;;;9.27;;
67076;SDS011;53991;46.364;17.008;2022-08-25T13:19:03;9.80;;;8.90;;
67076;SDS011;53991;46.364;17.008;2022-08-25T13:22:13;8.85;;;7.95;;
67076;SDS011;53991;46.364;17.008;2022-08-25T13:25:18;8.75;;;7.93;;
67076;SDS011;53991;46.364;17.008;2022-08-25T13:28:29;9.02;;;8.23;;
67076;SDS011;53991;46.364;17.008;2022-08-25T13:31:55;9.60;;;8.80;;
67076;SDS011;53991;46.364;17.008;2022-08-25T13:35:11;8.93;;;7.97;;
67076;SDS011;53991;46.364;17.008;2022-08-25T13:38:20;9.35;;;8.45;;
67076;SDS011;53991;46.364;17.008;2022-08-25T13:44:30;9.23;;;8.30;;
67076;SDS011;53991;46.364;17.008;2022-08-25T13:47:36;8.73;;;7.85;;
67076;SDS011;53991;46.364;17.008;2022-08-25T13:50:46;8.57;;;7.88;;
67076;SDS011;53991;46.364;17.008;2022-08-25T13:53:58;8.40;;;7.68;;
67076;SDS011;53991;46.364;17.008;2022-08-25T14:00:29;9.32;;;8.43;;
67076;SDS011;53991;46.364;17.008;2022-08-25T14:03:36;9.88;;;8.98;;
67076;SDS011;53991;46.364;17.008;2022-08-25T14:06:46;8.83;;;8.13;;
67076;SDS011;53991;46.364;17.008;2022-08-25T14:16:21;8.18;;;7.43;;
67076;SDS011;53991;46.364;17.008;2022-08-25T14:19:26;8.48;;;7.78;;
67076;SDS011;53991;46.364;17.008;2022-08-25T14:22:28;8.40;;;7.70;;
67076;SDS011;53991;46.364;17.008;2022-08-25T14:25:31;9.13;;;7.40;;
67076;SDS011;53991;46.364;17.008;2022-08-25T14:28:35;8.82;;;7.82;;
67076;SDS011;53991;46.364;17.008;2022-08-25T14:31:41;7.65;;;7.05;;
67076;SDS011;53991;46.364;17.008;2022-08-25T14:34:45;8.35;;;7.55;;
67076;SDS011;53991;46.364;17.008;2022-08-25T14:37:47;8.82;;;8.02;;
67076;SDS011;53991;46.364;17.008;2022-08-25T14:40:50;8.88;;;8.10;;
67076;SDS011;53991;46.364;17.008;2022-08-25T14:43:54;8.40;;;7.60;;
67076;SDS011;53991;46.364;17.008;2022-08-25T14:46:57;8.48;;;7.63;;
67076;SDS011;53991;46.364;17.008;2022-08-25T14:50:01;8.27;;;7.47;;
67076;SDS011;53991;46.364;17.008;2022-08-25T14:53:03;9.00;;;7.43;;
67076;SDS011;53991;46.364;17.008;2022-08-25T14:56:06;7.55;;;6.85;;
67076;SDS011;53991;46.364;17.008;2022-08-25T14:59:10;7.18;;;6.55;;
67076;SDS011;53991;46.364;17.008;2022-08-25T15:02:13;8.32;;;7.57;;
67076;SDS011;53991;46.364;17.008;2022-08-25T15:05:22;7.38;;;6.82;;
67076;SDS011;53991;46.364;17.008;2022-08-25T15:08:25;8.25;;;7.55;;
67076;SDS011;53991;46.364;17.008;2022-08-25T15:11:33;7.78;;;7.05;;
67076;SDS011;53991;46.364;17.008;2022-08-25T15:14:39;8.75;;;7.85;;
67076;SDS011;53991;46.364;17.008;2022-08-25T15:17:41;8.45;;;7.50;;
67076;SDS011;53991;46.364;17.008;2022-08-25T15:20:46;8.15;;;7.47;;
67076;SDS011;53991;46.364;17.008;2022-08-25T15:23:50;8.50;;;7.72;;
67076;SDS011;53991;46.364;17.008;2022-08-25T15:26:58;9.18;;;7.80;;
67076;SDS011;53991;46.364;17.008;2022-08-25T15:30:02;7.50;;;6.90;;
67076;SDS011;53991;46.364;17.008;2022-08-25T15:33:05;8.60;;;7.63;;
67076;SDS011;53991;46.364;17.008;2022-08-25T15:36:08;9.23;;;8.32;;
67076;SDS011;53991;46.364;17.008;2022-08-25T15:39:16;9.10;;;8.23;;
67076;SDS011;53991;46.364;17.008;2022-08-25T15:42:20;9.20;;;8.40;;
67076;SDS011;53991;46.364;17.008;2022-08-25T15:45:22;10.07;;;8.18;;
67076;SDS011;53991;46.364;17.008;2022-08-25T15:48:24;8.60;;;7.80;;
67076;SDS011;53991;46.364;17.008;2022-08-25T15:51:27;8.93;;;7.90;;
67076;SDS011;53991;46.364;17.008;2022-08-25T15:54:30;9.15;;;8.30;;
67076;SDS011;53991;46.364;17.008;2022-08-25T15:57:32;8.63;;;7.70;;
67076;SDS011;53991;46.364;17.008;2022-08-25T16:00:39;9.90;;;9.00;;
67076;SDS011;53991;46.364;17.008;2022-08-25T16:03:42;9.90;;;8.65;;
67076;SDS011;53991;46.364;17.008;2022-08-25T16:06:44;10.95;;;9.88;;
67076;SDS011;53991;46.364;17.008;2022-08-25T16:09:48;8.55;;;7.55;;
67076;SDS011;53991;46.364;17.008;2022-08-25T16:12:51;8.95;;;7.75;;
67076;SDS011;53991;46.364;17.008;2022-08-25T16:15:54;9.00;;;8.10;;
67076;SDS011;53991;46.364;17.008;2022-08-25T16:18:57;8.32;;;7.50;;
67076;SDS011;53991;46.364;17.008;2022-08-25T16:21:59;10.55;;;8.52;;
67076;SDS011;53991;46.364;17.008;2022-08-25T16:25:02;9.18;;;8.13;;
67076;SDS011;53991;46.364;17.008;2022-08-25T16:28:07;15.07;;;9.23;;
67076;SDS011;53991;46.364;17.008;2022-08-25T16:31:12;9.63;;;8.65;;
67076;SDS011;53991;46.364;17.008;2022-08-25T16:34:16;9.50;;;8.43;;
67076;SDS011;53991;46.364;17.008;2022-08-25T16:37:18;11.20;;;8.77;;
67076;SDS011;53991;46.364;17.008;2022-08-25T16:40:23;10.80;;;9.73;;
67076;SDS011;53991;46.364;17.008;2022-08-25T16:43:26;11.73;;;9.52;;
67076;SDS011;53991;46.364;17.008;2022-08-25T16:46:30;11.15;;;9.68;;
67076;SDS011;53991;46.364;17.008;2022-08-25T16:49:32;12.20;;;10.23;;
67076;SDS011;53991;46.364;17.008;2022-08-25T16:52:35;12.35;;;9.75;;
67076;SDS011;53991;46.364;17.008;2022-08-25T16:55:37;14.07;;;10.80;;
67076;SDS011;53991;46.364;17.008;2022-08-25T16:58:40;17.08;;;9.85;;
67076;SDS011;53991;46.364;17.008;2022-08-25T17:01:46;20.73;;;12.32;;
67076;SDS011;53991;46.364;17.008;2022-08-25T17:04:48;53.03;;;24.38;;
67076;SDS011;53991;46.364;17.008;2022-08-25T17:07:52;15.57;;;10.27;;
67076;SDS011;53991;46.364;17.008;2022-08-25T17:11:04;15.00;;;11.30;;
67076;SDS011;53991;46.364;17.008;2022-08-25T17:14:15;21.17;;;13.32;;
67076;SDS011;53991;46.364;17.008;2022-08-25T17:17:19;17.67;;;12.00;;
67076;SDS011;53991;46.364;17.008;2022-08-25T17:20:27;13.05;;;11.43;;
67076;SDS011;53991;46.364;17.008;2022-08-25T17:23:30;13.57;;;11.60;;
67076;SDS011;53991;46.364;17.008;2022-08-25T17:26:37;10.55;;;9.52;;
67076;SDS011;53991;46.364;17.008;2022-08-25T17:29:41;13.80;;;10.75;;
67076;SDS011;53991;46.364;17.008;2022-08-25T17:32:44;14.90;;;11.65;;
67076;SDS011;53991;46.364;17.008;2022-08-25T17:35:52;16.20;;;10.43;;
67076;SDS011;53991;46.364;17.008;2022-08-25T17:38:56;13.73;;;10.35;;
67076;SDS011;53991;46.364;17.008;2022-08-25T17:45:01;15.70;;;10.88;;
67076;SDS011;53991;46.364;17.008;2022-08-25T17:48:05;13.20;;;11.88;;
67076;SDS011;53991;46.364;17.008;2022-08-25T17:51:08;14.02;;;10.48;;
67076;SDS011;53991;46.364;17.008;2022-08-25T17:54:11;12.70;;;11.40;;
67076;SDS011;53991;46.364;17.008;2022-08-25T17:57:14;13.35;;;11.70;;
67076;SDS011;53991;46.364;17.008;2022-08-25T18:00:17;12.35;;;10.80;;
67076;SDS011;53991;46.364;17.008;2022-08-25T18:03:21;13.23;;;10.32;;
67076;SDS011;53991;46.364;17.008;2022-08-25T18:06:24;13.35;;;11.32;;
67076;SDS011;53991;46.364;17.008;2022-08-25T18:09:27;14.15;;;10.95;;
67076;SDS011;53991;46.364;17.008;2022-08-25T18:12:30;15.55;;;13.15;;
67076;SDS011;53991;46.364;17.008;2022-08-25T18:15:32;15.50;;;11.52;;
67076;SDS011;53991;46.364;17.008;2022-08-25T18:18:35;12.18;;;10.93;;
67076;SDS011;53991;46.364;17.008;2022-08-25T18:21:38;16.73;;;12.70;;
67076;SDS011;53991;46.364;17.008;2022-08-25T18:24:44;12.88;;;11.52;;
67076;SDS011;53991;46.364;17.008;2022-08-25T18:27:46;14.07;;;12.50;;
67076;SDS011;53991;46.364;17.008;2022-08-25T18:30:48;12.05;;;10.85;;
67076;SDS011;53991;46.364;17.008;2022-08-25T18:33:52;17.25;;;12.55;;
67076;SDS011;53991;46.364;17.008;2022-08-25T18:39:56;14.43;;;12.77;;
67076;SDS011;53991;46.364;17.008;2022-08-25T18:43:00;14.52;;;12.35;;
67076;SDS011;53991;46.364;17.008;2022-08-25T18:46:04;14.00;;;12.50;;
67076;SDS011;53991;46.364;17.008;2022-08-25T18:49:08;14.25;;;11.98;;
67076;SDS011;53991;46.364;17.008;2022-08-25T18:52:16;14.85;;;12.60;;
67076;SDS011;53991;46.364;17.008;2022-08-25T18:55:18;15.48;;;12.85;;
67076;SDS011;53991;46.364;17.008;2022-08-25T18:58:22;15.73;;;12.80;;
67076;SDS011;53991;46.364;17.008;2022-08-25T19:01:25;15.02;;;13.18;;
67076;SDS011;53991;46.364;17.008;2022-08-25T19:04:29;13.95;;;12.55;;
67076;SDS011;53991;46.364;17.008;2022-08-25T19:07:32;18.67;;;12.88;;
67076;SDS011;53991;46.364;17.008;2022-08-25T19:10:35;13.10;;;11.52;;
67076;SDS011;53991;46.364;17.008;2022-08-25T19:13:39;15.85;;;12.60;;
67076;SDS011;53991;46.364;17.008;2022-08-25T19:16:41;14.68;;;13.05;;
67076;SDS011;53991;46.364;17.008;2022-08-25T19:19:44;13.48;;;12.05;;
67076;SDS011;53991;46.364;17.008;2022-08-25T19:22:49;17.33;;;12.73;;
67076;SDS011;53991;46.364;17.008;2022-08-25T19:25:51;15.10;;;11.98;;
67076;SDS011;53991;46.364;17.008;2022-08-25T19:28:54;14.68;;;13.10;;
67076;SDS011;53991;46.364;17.008;2022-08-25T19:31:56;13.88;;;11.93;;
67076;SDS011;53991;46.364;17.008;2022-08-25T19:35:02;13.93;;;12.60;;
67076;SDS011;53991;46.364;17.008;2022-08-25T19:38:05;15.95;;;13.73;;
67076;SDS011;53991;46.364;17.008;2022-08-25T19:41:29;19.95;;;14.43;;
67076;SDS011;53991;46.364;17.008;2022-08-25T19:44:32;20.80;;;13.55;;
67076;SDS011;53991;46.364;17.008;2022-08-25T19:47:35;15.45;;;13.50;;
67076;SDS011;53991;46.364;17.008;2022-08-25T19:50:37;17.50;;;12.95;;
67076;SDS011;53991;46.364;17.008;2022-08-25T19:53:41;15.50;;;13.93;;
67076;SDS011;53991;46.364;17.008;2022-08-25T19:56:43;15.25;;;12.80;;
67076;SDS011;53991;46.364;17.008;2022-08-25T19:59:55;17.60;;;12.13;;
67076;SDS011;53991;46.364;17.008;2022-08-25T20:02:57;13.30;;;11.90;;
67076;SDS011;53991;46.364;17.008;2022-08-25T20:06:00;14.52;;;12.35;;
67076;SDS011;53991;46.364;17.008;2022-08-25T20:09:04;15.27;;;12.93;;
67076;SDS011;53991;46.364;17.008;2022-08-25T20:12:21;15.32;;;12.68;;
67076;SDS011;53991;46.364;17.008;2022-08-25T20:15:25;15.82;;;13.68;;
67076;SDS011;53991;46.364;17.008;2022-08-25T20:18:28;15.30;;;12.30;;
67076;SDS011;53991;46.364;17.008;2022-08-25T20:24:38;14.82;;;12.32;;
67076;SDS011;53991;46.364;17.008;2022-08-25T20:27:54;13.10;;;11.80;;
67076;SDS011;53991;46.364;17.008;2022-08-25T20:30:56;16.20;;;12.88;;
67076;SDS011;53991;46.364;17.008;2022-08-25T20:34:00;18.55;;;12.35;;
67076;SDS011;53991;46.364;17.008;2022-08-25T20:37:03;16.73;;;12.85;;
67076;SDS011;53991;46.364;17.008;2022-08-25T20:40:07;14.25;;;12.73;;
67076;SDS011;53991;46.364;17.008;2022-08-25T20:43:11;15.15;;;12.77;;
67076;SDS011;53991;46.364;17.008;2022-08-25T20:49:17;13.15;;;11.80;;
67076;SDS011;53991;46.364;17.008;2022-08-25T20:55:21;15.97;;;12.47;;
67076;SDS011;53991;46.364;17.008;2022-08-25T21:01:27;15.70;;;12.05;;
67076;SDS011;53991;46.364;17.008;2022-08-25T21:04:30;18.38;;;12.32;;
67076;SDS011;53991;46.364;17.008;2022-08-25T21:07:32;16.83;;;13.90;;
67076;SDS011;53991;46.364;17.008;2022-08-25T21:10:36;18.33;;;12.95;;
67076;SDS011;53991;46.364;17.008;2022-08-25T21:13:39;15.52;;;13.35;;
67076;SDS011;53991;46.364;17.008;2022-08-25T21:16:42;16.15;;;13.15;;
67076;SDS011;53991;46.364;17.008;2022-08-25T21:22:50;15.32;;;12.00;;
67076;SDS011;53991;46.364;17.008;2022-08-25T21:25:53;15.85;;;12.73;;
67076;SDS011;53991;46.364;17.008;2022-08-25T21:28:56;13.82;;;11.80;;
67076;SDS011;53991;46.364;17.008;2022-08-25T21:32:00;17.25;;;11.70;;
67076;SDS011;53991;46.364;17.008;2022-08-25T21:38:08;14.80;;;11.73;;
67076;SDS011;53991;46.364;17.008;2022-08-25T21:44:16;16.10;;;12.55;;
67076;SDS011;53991;46.364;17.008;2022-08-25T21:47:19;14.30;;;11.93;;
67076;SDS011;53991;46.364;17.008;2022-08-25T21:50:23;18.83;;;11.77;;
67076;SDS011;53991;46.364;17.008;2022-08-25T21:53:28;15.32;;;11.85;;
67076;SDS011;53991;46.364;17.008;2022-08-25T21:56:31;14.90;;;13.02;;
67076;SDS011;53991;46.364;17.008;2022-08-25T21:59:35;18.15;;;14.15;;
67076;SDS011;53991;46.364;17.008;2022-08-25T22:02:39;15.45;;;12.68;;
67076;SDS011;53991;46.364;17.008;2022-08-25T22:05:44;18.88;;;12.95;;
67076;SDS011;53991;46.364;17.008;2022-08-25T22:08:48;18.65;;;14.00;;
67076;SDS011;53991;46.364;17.008;2022-08-25T22:14:55;15.50;;;13.85;;